createdAt,value
2023-07-03T00:01:32.650Z,16.84
2023-07-03T00:03:20.694Z,18.13
2023-07-03T00:04:24.400Z,17.26
2023-07-03T00:06:10.298Z,17.6
2023-07-03T00:07:13.915Z,16.12
2023-07-03T00:08:59.463Z,17.22
2023-07-03T00:10:02.549Z,16.89
2023-07-03T00:11:47.610Z,16.3
2023-07-03T00:12:50.615Z,16.03
2023-07-03T00:14:36.019Z,16.75
2023-07-03T00:15:39.299Z,15.81
2023-07-03T00:17:25.315Z,16.01
2023-07-03T00:18:28.765Z,15.7
2023-07-03T00:20:13.808Z,14.93
2023-07-03T00:21:17.250Z,16.48
2023-07-03T00:23:02.625Z,16.34
2023-07-03T00:24:05.799Z,17.94
2023-07-03T00:25:50.916Z,16.37
2023-07-03T00:26:54.397Z,17.52
2023-07-03T00:28:39.837Z,15.03
2023-07-03T00:29:43.173Z,15.63
2023-07-03T00:31:28.472Z,17.36
2023-07-03T00:32:31.919Z,17.29
2023-07-03T00:34:17.395Z,15.77
2023-07-03T00:35:20.405Z,15.7
2023-07-03T00:37:05.784Z,17.46
2023-07-03T00:38:08.836Z,16.87
2023-07-03T00:39:54.391Z,16.89
2023-07-03T00:40:57.511Z,16.09
2023-07-03T00:42:42.997Z,16.71
2023-07-03T00:43:46.196Z,16.8
2023-07-03T00:45:31.667Z,18.51
2023-07-03T00:46:34.948Z,15.84
2023-07-03T00:48:20.533Z,16.61
2023-07-03T00:49:23.929Z,15.26
2023-07-03T00:51:09.231Z,16.5
2023-07-03T00:52:12.346Z,16.71
2023-07-03T00:53:57.670Z,15.14
2023-07-03T00:55:00.739Z,16.95
2023-07-03T00:56:46.336Z,17.09
2023-07-03T00:57:49.669Z,16.7
2023-07-03T00:59:35.129Z,17.06
2023-07-03T01:00:29.134Z,16.6
2023-07-03T01:01:32.795Z,15.42
2023-07-03T01:03:18.401Z,16.67
2023-07-03T01:04:21.745Z,16.48
2023-07-03T01:06:09.065Z,15.99
2023-07-03T01:07:12.062Z,14.91
2023-07-03T01:08:57.373Z,15.77
2023-07-03T01:10:00.546Z,16.73
2023-07-03T01:11:46.158Z,16.29
2023-07-03T01:12:49.280Z,17.72
2023-07-03T01:14:34.605Z,16.4
2023-07-03T01:15:38.117Z,16.28
2023-07-03T01:17:24.234Z,15.42
2023-07-03T01:18:27.741Z,16.68
2023-07-03T01:20:12.975Z,15.62
2023-07-03T01:21:16.085Z,17.43
2023-07-03T01:23:01.469Z,16.11
2023-07-03T01:24:04.729Z,16.48
2023-07-03T01:25:50.639Z,16.99
2023-07-03T01:26:54.223Z,16.47
2023-07-03T01:28:39.723Z,15.94
2023-07-03T01:29:42.938Z,17.27
2023-07-03T01:31:28.400Z,15.67
2023-07-03T01:32:31.755Z,15.7
2023-07-03T01:34:17.277Z,16.17
2023-07-03T01:35:20.379Z,15.31
2023-07-03T01:37:05.557Z,16.03
2023-07-03T01:38:08.780Z,17.05
2023-07-03T01:39:53.908Z,16.5
2023-07-03T01:40:57.172Z,16.5
2023-07-03T01:42:42.736Z,16.36
2023-07-03T01:43:46.084Z,15.31
2023-07-03T01:45:31.740Z,15.96
2023-07-03T01:46:35.504Z,16.7
2023-07-03T01:48:21.283Z,15.59
2023-07-03T01:49:24.424Z,16.2
2023-07-03T01:51:09.833Z,15.83
2023-07-03T01:52:13.202Z,16.87
2023-07-03T01:53:58.558Z,16.77
2023-07-03T01:55:01.928Z,15.41
2023-07-03T01:56:47.640Z,17.05
2023-07-03T01:57:51.141Z,16.58
2023-07-03T01:59:36.792Z,15.62
2023-07-03T02:00:29.540Z,16.79
2023-07-03T02:01:32.695Z,16.27
2023-07-03T02:03:19.317Z,17.17
2023-07-03T02:04:23.145Z,17.01
2023-07-03T02:06:08.600Z,16.38
2023-07-03T02:07:12.013Z,15.25
2023-07-03T02:08:57.285Z,14.47
2023-07-03T02:10:00.537Z,17.43
2023-07-03T02:11:45.794Z,17.56
2023-07-03T02:12:49.018Z,15.57
2023-07-03T02:14:34.396Z,15.6
2023-07-03T02:15:37.638Z,15.79
2023-07-03T02:17:23.700Z,17.66
2023-07-03T02:18:27.096Z,16.52
2023-07-03T02:20:12.592Z,16.62
2023-07-03T02:21:15.795Z,17.32
2023-07-03T02:23:00.769Z,16.28
2023-07-03T02:24:04.125Z,16.86
2023-07-03T02:25:49.979Z,16.13
2023-07-03T02:26:53.571Z,17.18
2023-07-03T02:28:38.672Z,15.56
2023-07-03T02:29:42.049Z,15.57
2023-07-03T02:31:27.961Z,16.57
2023-07-03T02:32:31.459Z,17.22
2023-07-03T02:34:16.781Z,17.56
2023-07-03T02:35:19.724Z,16.19
2023-07-03T02:37:05.117Z,15.85
2023-07-03T02:38:08.279Z,14.09
2023-07-03T02:39:53.332Z,14.22
2023-07-03T02:40:58.205Z,15.38
2023-07-03T02:42:43.717Z,16.07
2023-07-03T02:43:46.995Z,17.15
2023-07-03T02:45:32.133Z,16.46
2023-07-03T02:46:35.345Z,16.16
2023-07-03T02:48:21.494Z,16.47
2023-07-03T02:49:24.916Z,15.95
2023-07-03T02:51:10.641Z,15.18
2023-07-03T02:52:13.917Z,15.5
2023-07-03T02:53:59.052Z,15.66
2023-07-03T02:55:02.281Z,15.58
2023-07-03T02:56:47.731Z,16.88
2023-07-03T02:57:50.772Z,15.47
2023-07-03T02:59:35.638Z,15.58
2023-07-03T03:00:29.695Z,15.64
2023-07-03T03:01:33.431Z,16.37
2023-07-03T03:03:19.705Z,16.66
2023-07-03T03:04:23.698Z,16.39
2023-07-03T03:06:09.530Z,15.36
2023-07-03T03:07:13.090Z,15.28
2023-07-03T03:08:58.725Z,16.78
2023-07-03T03:10:02.037Z,16.08
2023-07-03T03:11:47.456Z,16.03
2023-07-03T03:12:50.883Z,18
2023-07-03T03:14:36.521Z,15.5
2023-07-03T03:15:39.730Z,16.87
2023-07-03T03:17:25.668Z,16.37
2023-07-03T03:18:29.363Z,16.38
2023-07-03T03:20:17.284Z,16.36
2023-07-03T03:21:20.805Z,15.15
2023-07-03T03:23:06.196Z,15.48
2023-07-03T03:24:09.313Z,16.25
2023-07-03T03:25:55.596Z,16.01
2023-07-03T03:26:59.087Z,16.53
2023-07-03T03:28:44.176Z,16.09
2023-07-03T03:29:47.203Z,16.08
2023-07-03T03:31:32.993Z,15.16
2023-07-03T03:32:36.430Z,15.65
2023-07-03T03:34:21.805Z,16.05
2023-07-03T03:35:25.082Z,17.15
2023-07-03T03:37:10.662Z,17.54
2023-07-03T03:38:13.884Z,17.31
2023-07-03T03:39:59.130Z,16.27
2023-07-03T03:41:02.456Z,15.06
2023-07-03T03:42:47.786Z,16.4
2023-07-03T03:43:51.140Z,16.02
2023-07-03T03:45:36.272Z,16.34
2023-07-03T03:46:39.649Z,15.32
2023-07-03T03:48:26.170Z,16.41
2023-07-03T03:49:29.647Z,15.67
2023-07-03T03:51:14.788Z,16.33
2023-07-03T03:52:17.992Z,16.1
2023-07-03T03:54:02.980Z,15.77
2023-07-03T03:55:06.532Z,16.12
2023-07-03T03:56:51.749Z,15.29
2023-07-03T03:57:55.053Z,15.64
2023-07-03T03:59:40.528Z,16.38
2023-07-03T04:00:28.998Z,15.68
2023-07-03T04:01:32.466Z,16.35
2023-07-03T04:03:18.439Z,15.14
2023-07-03T04:04:22.125Z,15.16
2023-07-03T04:05:58.664Z,15.46
2023-07-03T04:07:02.170Z,16.02
2023-07-03T04:08:47.946Z,16.82
2023-07-03T04:09:51.385Z,15.87
2023-07-03T04:11:37.118Z,14.92
2023-07-03T04:12:40.578Z,14.41
2023-07-03T04:14:26.443Z,15.34
2023-07-03T04:15:29.975Z,16.07
2023-07-03T04:17:15.949Z,15.9
2023-07-03T04:18:19.412Z,15.49
2023-07-03T04:20:05.058Z,16.23
2023-07-03T04:21:08.623Z,15.44
2023-07-03T04:22:57.148Z,14.92
2023-07-03T04:24:00.553Z,16.68
2023-07-03T04:25:46.030Z,15.18
2023-07-03T04:26:50.158Z,14.7
2023-07-03T04:28:35.827Z,14.62
2023-07-03T04:29:39.209Z,15.49
2023-07-03T04:31:25.034Z,15.88
2023-07-03T04:32:28.575Z,14.78
2023-07-03T04:34:17.204Z,14.53
2023-07-03T04:35:20.721Z,13.68
2023-07-03T04:37:06.406Z,15.18
2023-07-03T04:38:10.028Z,16.12
2023-07-03T04:39:55.626Z,14.67
2023-07-03T04:40:59.156Z,15.99
2023-07-03T04:42:45.263Z,16.43
2023-07-03T04:43:48.918Z,15.81
2023-07-03T04:45:34.629Z,15.36
2023-07-03T04:46:38.635Z,16.5
2023-07-03T04:48:24.443Z,15.48
2023-07-03T04:49:28.018Z,15.29
2023-07-03T04:51:13.561Z,15.25
2023-07-03T04:52:16.860Z,16.45
2023-07-03T04:54:02.631Z,16.3
2023-07-03T04:55:06.267Z,16.14
2023-07-03T04:56:52.731Z,15.1
2023-07-03T04:57:56.127Z,14.85
2023-07-03T04:59:41.683Z,15.57
2023-07-03T05:00:29.689Z,16.09
2023-07-03T05:01:33.199Z,15.55
2023-07-03T05:03:19.757Z,15.7
2023-07-03T05:04:24.109Z,15.35
2023-07-03T05:06:10.464Z,16.41
2023-07-03T05:07:14.165Z,15.55
2023-07-03T05:09:00.232Z,15.71
2023-07-03T05:10:03.816Z,16.17
2023-07-03T05:11:49.438Z,15.77
2023-07-03T05:12:53.076Z,15.6
2023-07-03T05:14:38.812Z,14.95
2023-07-03T05:15:42.468Z,15.08
2023-07-03T05:17:28.894Z,15.25
2023-07-03T05:18:32.259Z,15.04
2023-07-03T05:20:17.617Z,15.4
2023-07-03T05:21:20.768Z,16.68
2023-07-03T05:23:05.949Z,14.06
2023-07-03T05:24:08.892Z,14.9
2023-07-03T05:25:54.638Z,15.86
2023-07-03T05:26:57.756Z,16.63
2023-07-03T05:28:43.112Z,14.48
2023-07-03T05:29:46.493Z,15.24
2023-07-03T05:31:32.240Z,15.24
2023-07-03T05:32:36.380Z,14.25
2023-07-03T05:34:21.645Z,15.49
2023-07-03T05:35:24.904Z,16.24
2023-07-03T05:37:24.301Z,15.16
2023-07-03T05:38:28.863Z,15.02
2023-07-03T05:40:14.385Z,16.19
2023-07-03T05:41:17.647Z,15.58
2023-07-03T05:43:02.770Z,15.79
2023-07-03T05:44:06.166Z,15.89
2023-07-03T05:45:51.748Z,16.79
2023-07-03T05:46:55.555Z,16.61
2023-07-03T05:48:42.304Z,16.81
2023-07-03T05:49:45.664Z,15.9
2023-07-03T05:51:31.137Z,15.87
2023-07-03T05:52:34.565Z,15.65
2023-07-03T05:54:22.733Z,15.54
2023-07-03T05:55:25.928Z,16.93
2023-07-03T05:57:11.325Z,16.72
2023-07-03T05:58:14.744Z,17.82
2023-07-03T05:59:59.950Z,16.63
2023-07-03T06:01:33.188Z,15.86
2023-07-03T06:03:20.852Z,15.65
2023-07-03T06:04:25.305Z,15.04
2023-07-03T06:06:11.631Z,17.26
2023-07-03T06:07:14.902Z,16.66
2023-07-03T06:09:00.457Z,17.08
2023-07-03T06:10:03.549Z,18.1
2023-07-03T06:11:49.350Z,17.52
2023-07-03T06:12:52.693Z,16.2
2023-07-03T06:14:37.917Z,18.04
2023-07-03T06:15:41.241Z,16.87
2023-07-03T06:17:27.712Z,19.18
2023-07-03T06:18:31.094Z,17.11
2023-07-03T06:20:16.199Z,18
2023-07-03T06:21:19.541Z,17.96
2023-07-03T06:23:04.900Z,18.08
2023-07-03T06:24:09.491Z,16.94
2023-07-03T06:25:55.761Z,18.88
2023-07-03T06:26:59.048Z,18.09
2023-07-03T06:28:44.279Z,18.01
2023-07-03T06:29:47.809Z,17.11
2023-07-03T06:31:33.735Z,17.56
2023-07-03T06:32:37.131Z,18.55
2023-07-03T06:34:22.460Z,17.97
2023-07-03T06:35:25.959Z,18.02
2023-07-03T06:37:11.493Z,17.9
2023-07-03T06:38:14.553Z,17.68
2023-07-03T06:40:00.034Z,17.63
2023-07-03T06:41:03.106Z,17.11
2023-07-03T06:42:48.482Z,18.29
2023-07-03T06:43:51.943Z,18.18
2023-07-03T06:45:37.507Z,17.25
2023-07-03T06:46:41.417Z,17.96
2023-07-03T06:48:27.388Z,18.09
2023-07-03T06:49:30.504Z,17.53
2023-07-03T06:51:15.800Z,16.79
2023-07-03T06:52:19.066Z,18.22
2023-07-03T06:54:04.282Z,18.77
2023-07-03T06:55:07.409Z,18.3
2023-07-03T06:56:55.712Z,18.17
2023-07-03T06:57:58.715Z,18.22
2023-07-03T06:59:44.103Z,17.83
2023-07-03T07:00:28.879Z,17.1
2023-07-03T07:01:32.524Z,19.91
2023-07-03T07:03:19.524Z,18.06
2023-07-03T07:04:25.361Z,16.95
2023-07-03T07:06:14.703Z,18.92
2023-07-03T07:07:18.103Z,18.99
2023-07-03T07:09:03.511Z,18.76
2023-07-03T07:10:06.719Z,18.5
2023-07-03T07:11:52.375Z,19.82
2023-07-03T07:12:55.772Z,18.27
2023-07-03T07:14:44.845Z,19.29
2023-07-03T07:15:48.661Z,19.14
2023-07-03T07:17:57.764Z,17.62
2023-07-03T07:19:01.569Z,16.69
2023-07-03T07:20:50.886Z,19.51
2023-07-03T07:21:54.365Z,17.53
2023-07-03T07:23:39.707Z,19.37
2023-07-03T07:24:42.993Z,17.58
2023-07-03T07:26:28.574Z,19.27
2023-07-03T07:27:31.581Z,19.29
2023-07-03T07:29:17.203Z,16.52
2023-07-03T07:30:20.779Z,17.66
2023-07-03T07:32:06.546Z,19.92
2023-07-03T07:33:10.149Z,18.26
2023-07-03T07:34:55.945Z,15.95
2023-07-03T07:35:59.704Z,18.03
2023-07-03T07:37:45.283Z,16.89
2023-07-03T07:38:48.772Z,16.85
2023-07-03T07:40:36.871Z,17.44
2023-07-03T07:41:40.155Z,17.98
2023-07-03T07:43:25.546Z,19.29
2023-07-03T07:44:28.998Z,16.73
2023-07-03T07:46:14.581Z,18.2
2023-07-03T07:47:18.088Z,18.44
2023-07-03T07:49:03.631Z,16.98
2023-07-03T07:50:06.917Z,19.06
2023-07-03T07:51:52.119Z,18.38
2023-07-03T07:52:55.885Z,18.61
2023-07-03T07:54:41.388Z,18.31
2023-07-03T07:55:44.821Z,17.59
2023-07-03T07:57:32.397Z,18.11
2023-07-03T07:58:36.143Z,17.9
2023-07-03T08:00:29.902Z,19.48
2023-07-03T08:01:34.193Z,19.63
2023-07-03T08:03:23.263Z,16.9
2023-07-03T08:04:27.816Z,17.26
2023-07-03T08:06:14.075Z,18.12
2023-07-03T08:07:17.387Z,19.5
2023-07-03T08:09:02.886Z,18.96
2023-07-03T08:10:06.161Z,19.25
2023-07-03T08:11:51.364Z,18.05
2023-07-03T08:12:55.034Z,17.57
2023-07-03T08:14:40.617Z,20.6
2023-07-03T08:15:44.100Z,19.61
2023-07-03T08:17:30.560Z,20.77
2023-07-03T08:18:34.148Z,20.32
2023-07-03T08:20:23.862Z,19.46
2023-07-03T08:21:27.257Z,19.93
2023-07-03T08:23:12.568Z,17.52
2023-07-03T08:24:17.679Z,18.46
2023-07-03T08:26:04.141Z,18.33
2023-07-03T08:27:07.498Z,19.09
2023-07-03T08:28:52.945Z,17.92
2023-07-03T08:29:57.287Z,19.66
2023-07-03T08:31:43.975Z,18.06
2023-07-03T08:32:48.133Z,19.26
2023-07-03T08:34:35.009Z,19.33
2023-07-03T08:37:53.982Z,19.84
2023-07-03T08:38:57.375Z,17.11
2023-07-03T08:40:43.119Z,19.05
2023-07-03T08:41:46.660Z,17.99
2023-07-03T08:43:32.049Z,17.74
2023-07-03T08:44:36.367Z,18.92
2023-07-03T08:46:22.432Z,16.57
2023-07-03T08:47:30.388Z,19.73
2023-07-03T08:49:16.928Z,18.72
2023-07-03T08:52:21.791Z,18.4
2023-07-03T08:53:24.878Z,17.43
2023-07-03T08:55:10.436Z,19.6
2023-07-03T08:56:13.981Z,18.58
2023-07-03T08:57:59.721Z,18.92
2023-07-03T08:59:02.969Z,17.1
2023-07-03T09:00:29.299Z,18.91
2023-07-03T09:01:32.700Z,19.45
2023-07-03T09:03:21.917Z,18.14
2023-07-03T09:04:25.664Z,18.33
2023-07-03T09:06:11.377Z,18.81
2023-07-03T09:07:14.723Z,20.45
2023-07-03T09:09:00.315Z,20.1
2023-07-03T09:10:04.038Z,21.29
2023-07-03T09:11:51.842Z,19.82
2023-07-03T09:12:55.349Z,20.1
2023-07-03T09:14:40.720Z,17.89
2023-07-03T09:15:44.074Z,18.07
2023-07-03T09:17:30.964Z,18.94
2023-07-03T09:18:35.126Z,18.06
2023-07-03T09:20:22.266Z,18.37
2023-07-03T09:21:25.494Z,17.68
2023-07-03T09:23:10.723Z,19.78
2023-07-03T09:24:14.435Z,19.74
2023-07-03T09:26:07.438Z,17.47
2023-07-03T09:27:12.571Z,19.74
2023-07-03T09:28:57.999Z,19.17
2023-07-03T09:30:01.269Z,17.45
2023-07-03T09:31:52.500Z,19.25
2023-07-03T09:32:57.375Z,17.81
2023-07-03T09:34:42.894Z,19.83
2023-07-03T09:35:47.207Z,18.09
2023-07-03T09:37:35.009Z,17.88
2023-07-03T09:38:40.647Z,18.32
2023-07-03T09:40:27.359Z,16.87
2023-07-03T09:41:31.031Z,19.32
2023-07-03T09:43:17.065Z,18.28
2023-07-03T09:44:23.314Z,18.37
2023-07-03T09:46:11.293Z,18.05
2023-07-03T09:47:15.247Z,16.8
2023-07-03T09:49:03.950Z,17.78
2023-07-03T09:50:10.160Z,18.45
2023-07-03T09:52:12.501Z,16.36
2023-07-03T09:53:28.915Z,17.86
2023-07-03T09:55:15.176Z,17.64
2023-07-03T09:56:19.004Z,17.88
2023-07-03T09:58:04.359Z,18.21
2023-07-03T09:59:07.744Z,18.07
2023-07-03T10:00:29.338Z,19.7
2023-07-03T10:03:44.009Z,16.54
2023-07-03T10:07:01.803Z,18.84
2023-07-03T10:12:10.858Z,17.97
2023-07-03T10:13:58.629Z,17.17
2023-07-03T10:15:01.827Z,18.61
2023-07-03T10:16:47.899Z,18.06
2023-07-03T10:17:51.816Z,17.02
2023-07-03T10:19:37.412Z,16.9
2023-07-03T10:20:45.515Z,17.28
2023-07-03T10:22:31.004Z,19.76
2023-07-03T10:23:34.542Z,18.2
2023-07-03T10:25:19.836Z,15.88
2023-07-03T10:26:25.550Z,16.43
2023-07-03T10:28:11.349Z,18.02
2023-07-03T10:29:15.085Z,16.02
2023-07-03T10:31:00.509Z,18.17
2023-07-03T10:32:04.122Z,17.86
2023-07-03T10:33:49.912Z,17.17
2023-07-03T10:34:53.418Z,16.39
2023-07-03T10:36:38.985Z,17.26
2023-07-03T10:37:42.433Z,17.92
2023-07-03T10:39:27.891Z,18.37
2023-07-03T10:40:31.758Z,16.86
2023-07-03T10:42:17.377Z,17.9
2023-07-03T10:43:20.652Z,15.9
2023-07-03T10:45:06.276Z,16.85
2023-07-03T10:46:10.089Z,16.31
2023-07-03T10:47:59.181Z,17.51
2023-07-03T10:49:02.493Z,16.67
2023-07-03T10:50:49.795Z,17
2023-07-03T10:51:53.583Z,18.81
2023-07-03T10:53:38.894Z,18.81
2023-07-03T10:54:42.452Z,17.77
2023-07-03T10:56:28.253Z,17.23
2023-07-03T10:57:33.784Z,18.88
2023-07-03T10:59:20.685Z,18.52
2023-07-03T11:00:29.754Z,18.74
2023-07-03T11:01:33.390Z,17.03
2023-07-03T11:03:19.906Z,18.44
2023-07-03T11:04:42.456Z,17.43
2023-07-03T11:06:28.061Z,18.21
2023-07-03T11:07:31.178Z,17.6
2023-07-03T11:09:16.914Z,18.64
2023-07-03T11:10:20.163Z,17.21
2023-07-03T11:12:05.367Z,15.96
2023-07-03T11:13:08.583Z,17.05
2023-07-03T11:14:54.720Z,18.08
2023-07-03T11:15:58.944Z,16.8
2023-07-03T11:19:51.817Z,16.5
2023-07-03T11:23:10.429Z,18.38
2023-07-03T11:24:15.972Z,19.11
2023-07-03T11:28:06.091Z,18.93
2023-07-03T11:29:09.578Z,18.7
2023-07-03T11:30:55.224Z,18.62
2023-07-03T11:31:58.850Z,18.08
2023-07-03T11:36:04.648Z,18.52
2023-07-03T11:37:21.187Z,16.99
2023-07-03T11:44:39.690Z,18.93
2023-07-03T11:45:43.031Z,17.48
2023-07-03T11:47:29.575Z,16.49
2023-07-03T11:48:33.005Z,18
2023-07-03T11:50:18.237Z,17.26
2023-07-03T11:51:22.732Z,17.58
2023-07-03T11:53:08.538Z,17.7
2023-07-03T11:54:12.035Z,18.96
2023-07-03T11:55:58.047Z,16.39
2023-07-03T11:57:01.446Z,17.15
2023-07-03T11:59:10.082Z,17.33
2023-07-03T12:00:29.392Z,16.97
2023-07-03T12:01:33.230Z,17.84
2023-07-03T12:03:19.655Z,17.59
2023-07-03T12:04:23.188Z,16.62
2023-07-03T12:06:09.014Z,16.43
2023-07-03T12:07:12.351Z,17.93
2023-07-03T12:08:57.971Z,16.18
2023-07-03T12:10:01.234Z,18.14
2023-07-03T12:11:49.018Z,17
2023-07-03T12:12:52.440Z,17.49
2023-07-03T12:14:38.378Z,18.27
2023-07-03T12:15:41.737Z,16.35
2023-07-03T12:17:28.030Z,18.18
2023-07-03T12:18:31.756Z,19.56
2023-07-03T12:20:17.512Z,18.45
2023-07-03T12:21:20.827Z,16.2
2023-07-03T12:23:06.117Z,16.04
2023-07-03T12:24:09.174Z,17.62
2023-07-03T12:25:55.155Z,17.26
2023-07-03T12:26:58.568Z,17.82
2023-07-03T12:28:43.983Z,17.24
2023-07-03T12:29:47.269Z,16.31
2023-07-03T12:31:33.428Z,16.91
2023-07-03T12:32:37.425Z,18.98
2023-07-03T12:34:23.070Z,17.86
2023-07-03T12:35:26.721Z,16.45
2023-07-03T12:37:20.244Z,18.43
2023-07-03T12:38:23.589Z,19.22
2023-07-03T12:40:09.066Z,18.82
2023-07-03T12:41:12.321Z,17.37
2023-07-03T12:42:57.549Z,18.9
2023-07-03T12:44:19.163Z,16.22
2023-07-03T12:46:04.666Z,17.49
2023-07-03T12:47:08.405Z,18.63
2023-07-03T12:48:53.736Z,16.19
2023-07-03T12:49:57.477Z,18.3
2023-07-03T12:51:49.442Z,18.34
2023-07-03T12:52:53.161Z,16.98
2023-07-03T12:54:38.836Z,17.55
2023-07-03T12:55:45.644Z,16.44
2023-07-03T12:57:31.664Z,18
2023-07-03T12:58:35.283Z,19.31
2023-07-03T13:00:29.722Z,17.37
2023-07-03T13:01:33.444Z,17.41
2023-07-03T13:03:19.047Z,16.61
2023-07-03T13:04:22.153Z,18.02
2023-07-03T13:06:12.147Z,18.24
2023-07-03T13:07:15.734Z,16.51
2023-07-03T13:09:01.123Z,19.36
2023-07-03T13:10:04.659Z,18.18
2023-07-03T13:11:51.074Z,18.55
2023-07-03T13:12:54.204Z,16.75
2023-07-03T13:14:39.924Z,18.96
2023-07-03T13:15:43.700Z,18.27
2023-07-03T13:17:29.899Z,16.78
2023-07-03T13:18:33.401Z,17.64
2023-07-03T13:20:19.047Z,18.18
2023-07-03T13:21:22.102Z,18.05
2023-07-03T13:23:07.386Z,18.44
2023-07-03T13:24:10.706Z,15.94
2023-07-03T13:25:56.650Z,18.09
2023-07-03T13:27:00.255Z,18.48
2023-07-03T13:28:47.130Z,19.06
2023-07-03T13:29:50.558Z,18.7
2023-07-03T13:31:58.483Z,19.17
2023-07-03T13:33:02.136Z,18.81
2023-07-03T13:34:47.903Z,18.05
2023-07-03T13:35:51.247Z,18.17
2023-07-03T13:37:36.821Z,16.88
2023-07-03T13:38:40.109Z,17.98
2023-07-03T13:40:26.150Z,18.79
2023-07-03T13:41:29.538Z,18.08
2023-07-03T13:43:14.812Z,18.48
2023-07-03T13:44:18.063Z,17.31
2023-07-03T13:46:04.487Z,18.86
2023-07-03T13:47:08.223Z,19.66
2023-07-03T13:48:53.925Z,17.1
2023-07-03T13:49:57.261Z,18.27
2023-07-03T13:51:42.898Z,18.74
2023-07-03T13:52:46.390Z,17.88
2023-07-03T13:54:32.705Z,16.69
2023-07-03T13:55:36.222Z,18.57
2023-07-03T13:57:23.621Z,18.4
2023-07-03T13:58:26.850Z,16.49
2023-07-03T14:00:29.982Z,18.43
2023-07-03T14:01:43.972Z,17.08
2023-07-03T14:03:51.129Z,18.08
2023-07-03T14:04:55.845Z,19.15
2023-07-03T14:06:42.006Z,19.61
2023-07-03T14:07:45.324Z,18.89
2023-07-03T14:09:31.272Z,19.41
2023-07-03T14:10:34.753Z,17.27
2023-07-03T14:12:20.046Z,19.47
2023-07-03T14:13:23.518Z,17.23
2023-07-03T14:15:10.799Z,19.03
2023-07-03T14:16:14.199Z,18.49
2023-07-03T14:18:00.629Z,18.49
2023-07-03T14:19:06.880Z,19.02
2023-07-03T14:20:53.189Z,18.77
2023-07-03T14:21:56.597Z,17.51
2023-07-03T14:23:42.463Z,18.67
2023-07-03T14:24:45.858Z,19.47
2023-07-03T14:26:31.467Z,18.51
2023-07-03T14:27:34.797Z,18.38
2023-07-03T14:29:20.546Z,17.82
2023-07-03T14:30:23.817Z,18.43
2023-07-03T14:32:09.904Z,18.92
2023-07-03T14:33:19.538Z,19.81
2023-07-03T14:35:05.255Z,20.32
2023-07-03T14:36:09.332Z,19.21
2023-07-03T14:37:54.862Z,17.77
2023-07-03T14:38:58.509Z,19.01
2023-07-03T14:40:43.914Z,19.32
2023-07-03T14:41:47.585Z,18.72
2023-07-03T14:43:32.880Z,17.96
2023-07-03T14:44:36.345Z,19.42
2023-07-03T14:46:22.197Z,18.66
2023-07-03T14:47:25.828Z,19.46
2023-07-03T14:49:12.300Z,17.16
2023-07-03T14:50:15.775Z,19.8
2023-07-03T14:52:00.955Z,17.86
2023-07-03T14:53:04.304Z,19.43
2023-07-03T14:54:50.312Z,18.56
2023-07-03T14:55:53.818Z,16.48
2023-07-03T14:57:43.066Z,19.86
2023-07-03T14:58:46.512Z,18.08
2023-07-03T15:00:29.261Z,20.66
2023-07-03T15:01:34.462Z,16.96
2023-07-03T15:03:25.452Z,19.45
2023-07-03T15:04:30.835Z,19
2023-07-03T15:06:16.509Z,19.49
2023-07-03T15:07:19.583Z,18.79
2023-07-03T15:09:04.947Z,18.41
2023-07-03T15:10:08.606Z,17.18
2023-07-03T15:11:54.083Z,20.32
2023-07-03T15:12:59.464Z,17.4
2023-07-03T15:14:45.335Z,20.53
2023-07-03T15:15:49.074Z,18.32
2023-07-03T15:17:36.012Z,18.49
2023-07-03T15:18:39.672Z,18.87
2023-07-03T15:20:25.154Z,20.2
2023-07-03T15:21:31.784Z,20.8
2023-07-03T15:23:17.184Z,21.56
2023-07-03T15:24:20.761Z,19.77
2023-07-03T15:26:07.059Z,18.76
2023-07-03T15:27:10.500Z,20.36
2023-07-03T15:28:57.347Z,21.69
2023-07-03T15:30:00.872Z,20.67
2023-07-03T15:31:48.337Z,18.39
2023-07-03T15:32:52.345Z,20.95
2023-07-03T15:34:38.355Z,18.79
2023-07-03T15:35:41.933Z,19.58
2023-07-03T15:37:27.484Z,18.95
2023-07-03T15:38:30.832Z,17.79
2023-07-03T15:40:16.701Z,17.96
2023-07-03T15:41:20.067Z,18.39
2023-07-03T15:43:05.250Z,19.37
2023-07-03T15:44:08.494Z,19.24
2023-07-03T15:45:53.845Z,19.87
2023-07-03T15:46:57.351Z,20.89
2023-07-03T15:48:43.221Z,18.91
2023-07-03T15:49:50.043Z,17.22
2023-07-03T15:51:36.879Z,20.38
2023-07-03T15:52:40.327Z,18.3
2023-07-03T15:54:26.060Z,17.92
2023-07-03T15:55:31.855Z,17.95
2023-07-03T15:57:18.501Z,18.34
2023-07-03T15:58:21.946Z,19.96
2023-07-03T16:00:29.019Z,16.99
2023-07-03T16:01:32.557Z,18.44
2023-07-03T16:03:18.533Z,17.47
2023-07-03T16:04:22.038Z,16.91
2023-07-03T16:05:58.929Z,18.48
2023-07-03T16:07:02.313Z,18.69
2023-07-03T16:08:49.061Z,19.2
2023-07-03T16:09:52.656Z,18.14
2023-07-03T16:11:38.731Z,19.65
2023-07-03T16:12:42.362Z,19.39
2023-07-03T16:14:28.333Z,20.55
2023-07-03T16:15:31.700Z,17.67
2023-07-03T16:17:19.114Z,18.19
2023-07-03T16:18:23.169Z,19.58
2023-07-03T16:20:10.116Z,19.05
2023-07-03T16:21:18.902Z,17.63
2023-07-03T16:23:04.882Z,20.41
2023-07-03T16:24:08.503Z,18.68
2023-07-03T16:25:54.373Z,17.69
2023-07-03T16:26:59.156Z,21.1
2023-07-03T16:28:44.812Z,20.59
2023-07-03T16:29:48.395Z,20.03
2023-07-03T16:31:34.896Z,19.51
2023-07-03T16:32:40.345Z,18.35
2023-07-03T16:34:26.363Z,19.74
2023-07-03T16:35:29.766Z,18.42
2023-07-03T16:37:15.455Z,20.06
2023-07-03T16:38:19.033Z,20.51
2023-07-03T16:40:04.605Z,17.63
2023-07-03T16:41:08.189Z,20.82
2023-07-03T16:42:54.214Z,18.46
2023-07-03T16:43:57.847Z,20.57
2023-07-03T16:45:43.758Z,19.42
2023-07-03T16:46:51.818Z,20.74
2023-07-03T16:48:38.230Z,20.63
2023-07-03T16:49:41.976Z,19.12
2023-07-03T16:51:27.822Z,18.91
2023-07-03T16:52:31.696Z,19.55
2023-07-03T16:54:17.601Z,20.34
2023-07-03T16:55:21.255Z,19.3
2023-07-03T16:57:07.082Z,21.3
2023-07-03T16:58:10.819Z,18.72
2023-07-03T16:59:59.334Z,19.45
2023-07-03T17:01:33.472Z,18.7
2023-07-03T17:03:20.270Z,18.48
2023-07-03T17:04:24.558Z,18.92
2023-07-03T17:06:10.485Z,21.82
2023-07-03T17:07:13.934Z,20.66
2023-07-03T17:08:59.560Z,19.65
2023-07-03T17:10:03.057Z,21.44
2023-07-03T17:11:48.976Z,20.35
2023-07-03T17:12:52.365Z,19.79
2023-07-03T17:14:38.152Z,19.2
2023-07-03T17:15:41.569Z,18.16
2023-07-03T17:17:29.361Z,20.85
2023-07-03T17:18:33.024Z,18.54
2023-07-03T17:20:18.941Z,18.71
2023-07-03T17:21:22.480Z,18.18
2023-07-03T17:23:08.547Z,16.94
2023-07-03T17:24:12.275Z,18.11
2023-07-03T17:25:58.469Z,17.9
2023-07-03T17:27:02.460Z,18.7
2023-07-03T17:28:48.185Z,18.66
2023-07-03T17:29:51.772Z,17.91
2023-07-03T17:31:38.002Z,19.2
2023-07-03T17:32:41.942Z,18.23
2023-07-03T17:34:27.985Z,18.44
2023-07-03T17:35:31.817Z,19.01
2023-07-03T17:37:17.452Z,20.31
2023-07-03T17:38:20.982Z,18.41
2023-07-03T17:40:06.804Z,20.04
2023-07-03T17:41:10.358Z,20.73
2023-07-03T17:42:59.714Z,18.53
2023-07-03T17:44:03.393Z,19.78
2023-07-03T17:45:49.312Z,20.3
2023-07-03T17:46:53.699Z,19.22
2023-07-03T17:48:40.082Z,19.64
2023-07-03T17:49:43.877Z,19.72
2023-07-03T17:51:29.523Z,20.14
2023-07-03T17:52:33.444Z,18.26
2023-07-03T17:54:19.046Z,17.58
2023-07-03T17:55:22.671Z,19.16
2023-07-03T17:57:11.385Z,18.67
2023-07-03T17:58:14.946Z,17.66
2023-07-03T18:00:00.416Z,17.94
2023-07-03T18:01:32.834Z,18.53
2023-07-03T18:03:19.328Z,18.48
2023-07-03T18:04:23.294Z,19.33
2023-07-03T18:06:09.753Z,18.54
2023-07-03T18:07:13.576Z,18.91
2023-07-03T18:08:59.503Z,20.09
2023-07-03T18:10:04.154Z,20.69
2023-07-03T18:11:50.341Z,18.38
2023-07-03T18:12:53.936Z,19.48
2023-07-03T18:14:39.881Z,18.86
2023-07-03T18:16:05.586Z,18.53
2023-07-03T18:17:51.820Z,17.94
2023-07-03T18:18:55.415Z,17.86
2023-07-03T18:20:41.382Z,18.28
2023-07-03T18:21:44.987Z,17.56
2023-07-03T18:23:30.526Z,19.5
2023-07-03T18:24:33.833Z,18.1
2023-07-03T18:26:19.504Z,18.56
2023-07-03T18:27:23.180Z,17.35
2023-07-03T18:29:08.920Z,18.64
2023-07-03T18:30:12.553Z,18.89
2023-07-03T18:31:58.840Z,18.54
2023-07-03T18:33:02.921Z,18.76
2023-07-03T18:34:48.822Z,19.13
2023-07-03T18:35:52.772Z,18.44
2023-07-03T18:37:38.495Z,18.69
2023-07-03T18:38:42.027Z,18.36
2023-07-03T18:40:28.014Z,18.26
2023-07-03T18:41:31.710Z,18.92
2023-07-03T18:43:17.714Z,18.41
2023-07-03T18:44:21.133Z,17.05